sensor_id;sensor_type;location;lat;lon;timestamp;P1;durP1;ratioP1;P2;durP2;ratioP2
14686;SDS011;7431;49.440;11.084;2023-07-02T00:02:19;2.22;;;1.65;;
14686;SDS011;7431;49.440;11.084;2023-07-02T00:04:45;2.25;;;1.90;;
14686;SDS011;7431;49.440;11.084;2023-07-02T00:07:11;1.90;;;1.80;;
14686;SDS011;7431;49.440;11.084;2023-07-02T00:09:37;1.60;;;1.50;;
14686;SDS011;7431;49.440;11.084;2023-07-02T00:12:03;2.88;;;2.20;;
14686;SDS011;7431;49.440;11.084;2023-07-02T00:14:29;1.90;;;1.73;;
14686;SDS011;7431;49.440;11.084;2023-07-02T00:16:55;1.40;;;1.30;;
14686;SDS011;7431;49.440;11.084;2023-07-02T00:19:21;2.13;;;1.92;;
14686;SDS011;7431;49.440;11.084;2023-07-02T00:21:47;1.50;;;1.40;;
14686;SDS011;7431;49.440;11.084;2023-07-02T00:24:13;3.20;;;2.10;;
14686;SDS011;7431;49.440;11.084;2023-07-02T00:26:41;1.85;;;1.70;;
14686;SDS011;7431;49.440;11.084;2023-07-02T00:29:07;2.42;;;2.10;;
14686;SDS011;7431;49.440;11.084;2023-07-02T00:31:34;2.10;;;1.90;;
14686;SDS011;7431;49.440;11.084;2023-07-02T00:34:00;2.70;;;1.80;;
14686;SDS011;7431;49.440;11.084;2023-07-02T00:36:27;2.40;;;2.20;;
14686;SDS011;7431;49.440;11.084;2023-07-02T00:38:53;2.22;;;2.03;;
14686;SDS011;7431;49.440;11.084;2023-07-02T00:41:19;2.30;;;1.98;;
14686;SDS011;7431;49.440;11.084;2023-07-02T00:43:45;2.38;;;1.90;;
14686;SDS011;7431;49.440;11.084;2023-07-02T00:46:13;2.33;;;2.13;;
14686;SDS011;7431;49.440;11.084;2023-07-02T00:48:46;2.95;;;2.05;;
14686;SDS011;7431;49.440;11.084;2023-07-02T00:51:15;1.77;;;1.67;;
14686;SDS011;7431;49.440;11.084;2023-07-02T00:53:43;2.72;;;2.08;;
14686;SDS011;7431;49.440;11.084;2023-07-02T00:56:10;3.63;;;2.00;;
14686;SDS011;7431;49.440;11.084;2023-07-02T00:58:38;1.95;;;1.80;;
14686;SDS011;7431;49.440;11.084;2023-07-02T01:01:04;2.60;;;2.17;;
14686;SDS011;7431;49.440;11.084;2023-07-02T01:03:30;2.03;;;1.83;;
14686;SDS011;7431;49.440;11.084;2023-07-02T01:05:58;1.90;;;1.80;;
14686;SDS011;7431;49.440;11.084;2023-07-02T01:08:24;1.98;;;1.88;;
14686;SDS011;7431;49.440;11.084;2023-07-02T01:10:50;2.00;;;1.75;;
14686;SDS011;7431;49.440;11.084;2023-07-02T01:13:17;2.60;;;2.13;;
14686;SDS011;7431;49.440;11.084;2023-07-02T01:15:45;2.13;;;1.92;;
14686;SDS011;7431;49.440;11.084;2023-07-02T01:18:11;3.20;;;2.17;;
14686;SDS011;7431;49.440;11.084;2023-07-02T01:20:38;2.00;;;1.90;;
14686;SDS011;7431;49.440;11.084;2023-07-02T01:23:04;2.60;;;2.40;;
14686;SDS011;7431;49.440;11.084;2023-07-02T01:25:30;3.50;;;2.38;;
14686;SDS011;7431;49.440;11.084;2023-07-02T01:27:56;2.30;;;2.05;;
14686;SDS011;7431;49.440;11.084;2023-07-02T01:30:23;2.58;;;2.00;;
14686;SDS011;7431;49.440;11.084;2023-07-02T01:32:50;2.40;;;2.20;;
14686;SDS011;7431;49.440;11.084;2023-07-02T01:35:16;2.65;;;2.10;;
14686;SDS011;7431;49.440;11.084;2023-07-02T01:37:42;2.45;;;2.10;;
14686;SDS011;7431;49.440;11.084;2023-07-02T01:40:08;3.20;;;2.05;;
14686;SDS011;7431;49.440;11.084;2023-07-02T01:42:34;2.95;;;2.35;;
14686;SDS011;7431;49.440;11.084;2023-07-02T01:45:00;3.03;;;2.20;;
14686;SDS011;7431;49.440;11.084;2023-07-02T01:47:26;2.45;;;2.25;;
14686;SDS011;7431;49.440;11.084;2023-07-02T01:49:52;4.90;;;2.42;;
14686;SDS011;7431;49.440;11.084;2023-07-02T01:52:18;3.17;;;2.35;;
14686;SDS011;7431;49.440;11.084;2023-07-02T01:54:44;8.35;;;5.28;;
14686;SDS011;7431;49.440;11.084;2023-07-02T01:57:11;4.43;;;3.67;;
14686;SDS011;7431;49.440;11.084;2023-07-02T01:59:37;6.35;;;4.15;;
14686;SDS011;7431;49.440;11.084;2023-07-02T02:02:03;3.90;;;3.10;;
14686;SDS011;7431;49.440;11.084;2023-07-02T02:04:29;3.15;;;2.85;;
14686;SDS011;7431;49.440;11.084;2023-07-02T02:06:55;3.58;;;2.60;;
14686;SDS011;7431;49.440;11.084;2023-07-02T02:09:21;5.43;;;2.80;;
14686;SDS011;7431;49.440;11.084;2023-07-02T02:11:48;2.60;;;2.40;;
14686;SDS011;7431;49.440;11.084;2023-07-02T02:14:15;4.80;;;3.55;;
14686;SDS011;7431;49.440;11.084;2023-07-02T02:16:41;7.20;;;4.93;;
14686;SDS011;7431;49.440;11.084;2023-07-02T02:19:10;3.83;;;3.22;;
14686;SDS011;7431;49.440;11.084;2023-07-02T02:21:36;6.40;;;4.30;;
14686;SDS011;7431;49.440;11.084;2023-07-02T02:24:02;7.07;;;4.38;;
14686;SDS011;7431;49.440;11.084;2023-07-02T02:26:29;2.72;;;2.08;;
14686;SDS011;7431;49.440;11.084;2023-07-02T02:28:55;3.10;;;2.45;;
14686;SDS011;7431;49.440;11.084;2023-07-02T02:31:21;3.28;;;2.60;;
14686;SDS011;7431;49.440;11.084;2023-07-02T02:33:46;2.67;;;2.20;;
14686;SDS011;7431;49.440;11.084;2023-07-02T02:36:13;2.10;;;1.90;;
14686;SDS011;7431;49.440;11.084;2023-07-02T02:38:39;2.53;;;2.20;;
14686;SDS011;7431;49.440;11.084;2023-07-02T02:41:05;3.88;;;1.90;;
14686;SDS011;7431;49.440;11.084;2023-07-02T02:43:33;3.35;;;2.20;;
14686;SDS011;7431;49.440;11.084;2023-07-02T02:45:59;3.00;;;2.00;;
14686;SDS011;7431;49.440;11.084;2023-07-02T02:48:25;2.00;;;1.88;;
14686;SDS011;7431;49.440;11.084;2023-07-02T02:50:51;2.30;;;2.10;;
14686;SDS011;7431;49.440;11.084;2023-07-02T02:53:17;2.38;;;1.90;;
14686;SDS011;7431;49.440;11.084;2023-07-02T02:55:43;2.75;;;1.70;;
14686;SDS011;7431;49.440;11.084;2023-07-02T02:58:09;2.35;;;2.10;;
14686;SDS011;7431;49.440;11.084;2023-07-02T03:00:38;2.72;;;1.92;;
14686;SDS011;7431;49.440;11.084;2023-07-02T03:03:07;1.83;;;1.63;;
14686;SDS011;7431;49.440;11.084;2023-07-02T03:05:33;2.70;;;1.90;;
14686;SDS011;7431;49.440;11.084;2023-07-02T03:07:59;2.30;;;1.80;;
14686;SDS011;7431;49.440;11.084;2023-07-02T03:10:25;2.33;;;2.00;;
14686;SDS011;7431;49.440;11.084;2023-07-02T03:12:51;2.05;;;1.85;;
14686;SDS011;7431;49.440;11.084;2023-07-02T03:15:17;2.50;;;2.00;;
14686;SDS011;7431;49.440;11.084;2023-07-02T03:17:43;1.88;;;1.77;;
14686;SDS011;7431;49.440;11.084;2023-07-02T03:20:09;1.83;;;1.73;;
14686;SDS011;7431;49.440;11.084;2023-07-02T03:22:35;3.50;;;2.15;;
14686;SDS011;7431;49.440;11.084;2023-07-02T03:25:01;2.08;;;1.88;;
14686;SDS011;7431;49.440;11.084;2023-07-02T03:27:27;1.73;;;1.63;;
14686;SDS011;7431;49.440;11.084;2023-07-02T03:29:53;2.33;;;1.63;;
14686;SDS011;7431;49.440;11.084;2023-07-02T03:32:19;3.60;;;1.95;;
14686;SDS011;7431;49.440;11.084;2023-07-02T03:34:45;2.40;;;2.20;;
14686;SDS011;7431;49.440;11.084;2023-07-02T03:37:11;1.88;;;1.77;;
14686;SDS011;7431;49.440;11.084;2023-07-02T03:39:37;3.22;;;2.10;;
14686;SDS011;7431;49.440;11.084;2023-07-02T03:42:04;4.97;;;2.75;;
14686;SDS011;7431;49.440;11.084;2023-07-02T03:44:31;2.28;;;2.08;;
14686;SDS011;7431;49.440;11.084;2023-07-02T03:46:56;3.30;;;2.25;;
14686;SDS011;7431;49.440;11.084;2023-07-02T03:49:22;2.72;;;2.25;;
14686;SDS011;7431;49.440;11.084;2023-07-02T03:51:48;2.15;;;1.95;;
14686;SDS011;7431;49.440;11.084;2023-07-02T03:54:15;2.45;;;1.88;;
14686;SDS011;7431;49.440;11.084;2023-07-02T03:56:41;3.17;;;2.53;;
14686;SDS011;7431;49.440;11.084;2023-07-02T03:59:07;4.15;;;2.22;;
14686;SDS011;7431;49.440;11.084;2023-07-02T04:01:33;2.22;;;2.03;;
14686;SDS011;7431;49.440;11.084;2023-07-02T04:03:59;2.10;;;1.77;;
14686;SDS011;7431;49.440;11.084;2023-07-02T04:06:25;2.20;;;2.00;;
14686;SDS011;7431;49.440;11.084;2023-07-02T04:08:51;2.55;;;2.10;;
14686;SDS011;7431;49.440;11.084;2023-07-02T04:11:17;2.67;;;1.75;;
14686;SDS011;7431;49.440;11.084;2023-07-02T04:13:43;1.75;;;1.65;;
14686;SDS011;7431;49.440;11.084;2023-07-02T04:16:09;3.60;;;2.25;;
14686;SDS011;7431;49.440;11.084;2023-07-02T04:18:35;2.58;;;2.08;;
14686;SDS011;7431;49.440;11.084;2023-07-02T04:21:01;2.28;;;2.05;;
14686;SDS011;7431;49.440;11.084;2023-07-02T04:23:27;2.60;;;1.67;;
14686;SDS011;7431;49.440;11.084;2023-07-02T04:25:53;2.47;;;1.70;;
14686;SDS011;7431;49.440;11.084;2023-07-02T04:28:19;3.38;;;2.00;;
14686;SDS011;7431;49.440;11.084;2023-07-02T04:30:45;2.72;;;2.03;;
14686;SDS011;7431;49.440;11.084;2023-07-02T04:33:14;2.60;;;2.38;;
14686;SDS011;7431;49.440;11.084;2023-07-02T04:35:40;1.95;;;1.73;;
14686;SDS011;7431;49.440;11.084;2023-07-02T04:38:07;2.17;;;2.00;;
14686;SDS011;7431;49.440;11.084;2023-07-02T04:40:33;3.88;;;1.90;;
14686;SDS011;7431;49.440;11.084;2023-07-02T04:42:59;2.90;;;2.25;;
14686;SDS011;7431;49.440;11.084;2023-07-02T04:45:27;2.47;;;2.20;;
14686;SDS011;7431;49.440;11.084;2023-07-02T04:47:57;3.65;;;2.00;;
14686;SDS011;7431;49.440;11.084;2023-07-02T04:50:25;2.42;;;2.22;;
14686;SDS011;7431;49.440;11.084;2023-07-02T04:52:51;2.58;;;2.20;;
14686;SDS011;7431;49.440;11.084;2023-07-02T04:55:17;5.07;;;2.08;;
14686;SDS011;7431;49.440;11.084;2023-07-02T04:57:43;2.55;;;1.80;;
14686;SDS011;7431;49.440;11.084;2023-07-02T05:00:10;14.60;;;10.07;;
14686;SDS011;7431;49.440;11.084;2023-07-02T05:02:36;3.35;;;1.90;;
14686;SDS011;7431;49.440;11.084;2023-07-02T05:05:02;4.57;;;1.60;;
14686;SDS011;7431;49.440;11.084;2023-07-02T05:07:28;2.20;;;2.00;;
14686;SDS011;7431;49.440;11.084;2023-07-02T05:09:54;5.00;;;2.35;;
14686;SDS011;7431;49.440;11.084;2023-07-02T05:12:20;2.47;;;1.92;;
14686;SDS011;7431;49.440;11.084;2023-07-02T05:14:46;4.03;;;1.70;;
14686;SDS011;7431;49.440;11.084;2023-07-02T05:17:12;2.40;;;2.13;;
14686;SDS011;7431;49.440;11.084;2023-07-02T05:19:41;2.40;;;1.80;;
14686;SDS011;7431;49.440;11.084;2023-07-02T05:22:08;2.40;;;1.80;;
14686;SDS011;7431;49.440;11.084;2023-07-02T05:24:34;2.25;;;1.65;;
14686;SDS011;7431;49.440;11.084;2023-07-02T05:27:00;2.67;;;1.50;;
14686;SDS011;7431;49.440;11.084;2023-07-02T05:29:26;3.35;;;1.50;;
14686;SDS011;7431;49.440;11.084;2023-07-02T05:31:52;2.55;;;1.50;;
14686;SDS011;7431;49.440;11.084;2023-07-02T05:34:18;1.80;;;1.65;;
14686;SDS011;7431;49.440;11.084;2023-07-02T05:36:44;2.20;;;1.85;;
14686;SDS011;7431;49.440;11.084;2023-07-02T05:39:10;2.38;;;1.58;;
14686;SDS011;7431;49.440;11.084;2023-07-02T05:41:36;2.97;;;2.17;;
14686;SDS011;7431;49.440;11.084;2023-07-02T05:44:02;4.50;;;2.35;;
14686;SDS011;7431;49.440;11.084;2023-07-02T05:46:28;2.85;;;2.30;;
14686;SDS011;7431;49.440;11.084;2023-07-02T05:48:54;5.78;;;2.72;;
14686;SDS011;7431;49.440;11.084;2023-07-02T05:51:25;4.95;;;2.40;;
14686;SDS011;7431;49.440;11.084;2023-07-02T05:53:51;2.55;;;2.35;;
14686;SDS011;7431;49.440;11.084;2023-07-02T05:56:17;3.10;;;2.28;;
14686;SDS011;7431;49.440;11.084;2023-07-02T05:58:44;2.97;;;2.35;;
14686;SDS011;7431;49.440;11.084;2023-07-02T06:01:10;7.25;;;2.88;;
14686;SDS011;7431;49.440;11.084;2023-07-02T06:03:36;3.90;;;3.13;;
14686;SDS011;7431;49.440;11.084;2023-07-02T06:06:02;2.92;;;2.60;;
14686;SDS011;7431;49.440;11.084;2023-07-02T06:08:28;3.80;;;2.53;;
14686;SDS011;7431;49.440;11.084;2023-07-02T06:10:54;4.32;;;2.72;;
14686;SDS011;7431;49.440;11.084;2023-07-02T06:13:20;3.90;;;3.30;;
14686;SDS011;7431;49.440;11.084;2023-07-02T06:15:46;5.20;;;3.63;;
14686;SDS011;7431;49.440;11.084;2023-07-02T06:18:13;5.38;;;3.47;;
14686;SDS011;7431;49.440;11.084;2023-07-02T06:20:39;5.30;;;3.88;;
14686;SDS011;7431;49.440;11.084;2023-07-02T06:23:05;4.65;;;3.42;;
14686;SDS011;7431;49.440;11.084;2023-07-02T06:25:31;7.40;;;4.15;;
14686;SDS011;7431;49.440;11.084;2023-07-02T06:27:57;4.88;;;3.55;;
14686;SDS011;7431;49.440;11.084;2023-07-02T06:30:23;9.05;;;4.18;;
14686;SDS011;7431;49.440;11.084;2023-07-02T06:32:49;9.32;;;4.45;;
14686;SDS011;7431;49.440;11.084;2023-07-02T06:35:15;7.90;;;4.53;;
14686;SDS011;7431;49.440;11.084;2023-07-02T06:37:45;6.50;;;4.70;;
14686;SDS011;7431;49.440;11.084;2023-07-02T06:40:11;7.60;;;4.70;;
14686;SDS011;7431;49.440;11.084;2023-07-02T06:42:37;7.63;;;4.82;;
14686;SDS011;7431;49.440;11.084;2023-07-02T06:45:03;5.38;;;4.40;;
14686;SDS011;7431;49.440;11.084;2023-07-02T06:47:30;9.00;;;4.47;;
14686;SDS011;7431;49.440;11.084;2023-07-02T06:49:58;9.55;;;5.00;;
14686;SDS011;7431;49.440;11.084;2023-07-02T06:52:24;6.60;;;4.53;;
14686;SDS011;7431;49.440;11.084;2023-07-02T06:54:50;7.57;;;4.60;;
14686;SDS011;7431;49.440;11.084;2023-07-02T06:57:16;6.68;;;4.78;;
14686;SDS011;7431;49.440;11.084;2023-07-02T06:59:42;7.82;;;4.75;;
14686;SDS011;7431;49.440;11.084;2023-07-02T07:02:08;7.00;;;4.45;;
14686;SDS011;7431;49.440;11.084;2023-07-02T07:04:34;5.65;;;4.22;;
14686;SDS011;7431;49.440;11.084;2023-07-02T07:07:00;7.78;;;4.57;;
14686;SDS011;7431;49.440;11.084;2023-07-02T07:09:30;6.22;;;4.75;;
14686;SDS011;7431;49.440;11.084;2023-07-02T07:11:56;6.57;;;4.63;;
14686;SDS011;7431;49.440;11.084;2023-07-02T07:14:22;6.63;;;4.70;;
14686;SDS011;7431;49.440;11.084;2023-07-02T07:16:48;9.00;;;5.80;;
14686;SDS011;7431;49.440;11.084;2023-07-02T07:19:14;7.78;;;4.85;;
14686;SDS011;7431;49.440;11.084;2023-07-02T07:21:40;7.95;;;5.43;;
14686;SDS011;7431;49.440;11.084;2023-07-02T07:24:07;8.85;;;5.43;;
14686;SDS011;7431;49.440;11.084;2023-07-02T07:26:33;6.95;;;4.72;;
14686;SDS011;7431;49.440;11.084;2023-07-02T07:28:59;10.30;;;5.22;;
14686;SDS011;7431;49.440;11.084;2023-07-02T07:31:26;7.85;;;4.70;;
14686;SDS011;7431;49.440;11.084;2023-07-02T07:33:52;8.75;;;5.03;;
14686;SDS011;7431;49.440;11.084;2023-07-02T07:36:18;6.53;;;5.03;;
14686;SDS011;7431;49.440;11.084;2023-07-02T07:38:44;6.60;;;4.88;;
14686;SDS011;7431;49.440;11.084;2023-07-02T07:41:11;8.10;;;4.80;;
14686;SDS011;7431;49.440;11.084;2023-07-02T07:43:37;6.57;;;4.18;;
14686;SDS011;7431;49.440;11.084;2023-07-02T07:46:02;9.88;;;5.18;;
14686;SDS011;7431;49.440;11.084;2023-07-02T07:48:28;8.07;;;5.35;;
14686;SDS011;7431;49.440;11.084;2023-07-02T07:50:54;7.85;;;5.07;;
14686;SDS011;7431;49.440;11.084;2023-07-02T07:53:20;10.43;;;5.30;;
14686;SDS011;7431;49.440;11.084;2023-07-02T07:55:46;6.70;;;4.63;;
14686;SDS011;7431;49.440;11.084;2023-07-02T07:58:12;5.70;;;4.97;;
14686;SDS011;7431;49.440;11.084;2023-07-02T08:00:38;9.32;;;5.22;;
14686;SDS011;7431;49.440;11.084;2023-07-02T08:03:04;7.57;;;4.60;;
14686;SDS011;7431;49.440;11.084;2023-07-02T08:05:31;5.93;;;4.70;;
14686;SDS011;7431;49.440;11.084;2023-07-02T08:07:57;8.27;;;5.13;;
14686;SDS011;7431;49.440;11.084;2023-07-02T08:10:23;6.18;;;4.50;;
14686;SDS011;7431;49.440;11.084;2023-07-02T08:12:50;8.82;;;4.32;;
14686;SDS011;7431;49.440;11.084;2023-07-02T08:15:19;8.52;;;4.40;;
14686;SDS011;7431;49.440;11.084;2023-07-02T08:17:45;6.82;;;4.55;;
14686;SDS011;7431;49.440;11.084;2023-07-02T08:20:11;5.10;;;4.30;;
14686;SDS011;7431;49.440;11.084;2023-07-02T08:22:37;5.10;;;3.63;;
14686;SDS011;7431;49.440;11.084;2023-07-02T08:25:03;4.22;;;3.65;;
14686;SDS011;7431;49.440;11.084;2023-07-02T08:27:29;4.25;;;3.15;;
14686;SDS011;7431;49.440;11.084;2023-07-02T08:29:55;4.90;;;3.78;;
14686;SDS011;7431;49.440;11.084;2023-07-02T08:32:21;4.75;;;3.47;;
14686;SDS011;7431;49.440;11.084;2023-07-02T08:34:47;4.68;;;2.85;;
14686;SDS011;7431;49.440;11.084;2023-07-02T08:37:15;3.58;;;3.20;;
14686;SDS011;7431;49.440;11.084;2023-07-02T08:39:41;4.25;;;3.20;;
14686;SDS011;7431;49.440;11.084;2023-07-02T08:42:07;4.25;;;2.78;;
14686;SDS011;7431;49.440;11.084;2023-07-02T08:44:33;4.60;;;3.35;;
14686;SDS011;7431;49.440;11.084;2023-07-02T08:47:00;4.47;;;2.97;;
14686;SDS011;7431;49.440;11.084;2023-07-02T08:49:27;4.80;;;3.35;;
14686;SDS011;7431;49.440;11.084;2023-07-02T08:51:53;4.35;;;3.13;;
14686;SDS011;7431;49.440;11.084;2023-07-02T08:54:19;3.95;;;3.00;;
14686;SDS011;7431;49.440;11.084;2023-07-02T08:56:46;4.60;;;3.03;;
14686;SDS011;7431;49.440;11.084;2023-07-02T08:59:12;4.95;;;3.03;;
14686;SDS011;7431;49.440;11.084;2023-07-02T09:01:51;5.97;;;3.05;;
14686;SDS011;7431;49.440;11.084;2023-07-02T09:04:24;7.60;;;3.30;;
14686;SDS011;7431;49.440;11.084;2023-07-02T09:07:06;6.28;;;3.60;;
14686;SDS011;7431;49.440;11.084;2023-07-02T09:09:32;5.63;;;2.88;;
14686;SDS011;7431;49.440;11.084;2023-07-02T09:11:58;3.13;;;2.83;;
14686;SDS011;7431;49.440;11.084;2023-07-02T09:14:28;4.03;;;3.25;;
14686;SDS011;7431;49.440;11.084;2023-07-02T09:17:08;5.25;;;2.83;;
14686;SDS011;7431;49.440;11.084;2023-07-02T09:19:34;3.40;;;2.40;;
14686;SDS011;7431;49.440;11.084;2023-07-02T09:22:00;4.32;;;2.78;;
14686;SDS011;7431;49.440;11.084;2023-07-02T09:24:28;3.60;;;3.10;;
14686;SDS011;7431;49.440;11.084;2023-07-02T09:26:55;3.42;;;2.70;;
14686;SDS011;7431;49.440;11.084;2023-07-02T09:31:48;4.50;;;2.92;;
14686;SDS011;7431;49.440;11.084;2023-07-02T09:34:14;2.47;;;2.28;;
14686;SDS011;7431;49.440;11.084;2023-07-02T09:36:41;2.85;;;2.50;;
14686;SDS011;7431;49.440;11.084;2023-07-02T09:39:08;4.75;;;3.10;;
14686;SDS011;7431;49.440;11.084;2023-07-02T09:41:34;3.38;;;2.85;;
14686;SDS011;7431;49.440;11.084;2023-07-02T09:44:00;3.78;;;2.80;;
14686;SDS011;7431;49.440;11.084;2023-07-02T09:46:27;4.07;;;2.70;;
14686;SDS011;7431;49.440;11.084;2023-07-02T09:48:54;5.18;;;2.53;;
14686;SDS011;7431;49.440;11.084;2023-07-02T09:51:20;4.93;;;2.90;;
14686;SDS011;7431;49.440;11.084;2023-07-02T09:53:46;3.60;;;2.83;;
14686;SDS011;7431;49.440;11.084;2023-07-02T09:56:12;3.75;;;2.70;;
14686;SDS011;7431;49.440;11.084;2023-07-02T09:58:38;4.85;;;3.50;;
14686;SDS011;7431;49.440;11.084;2023-07-02T10:01:04;3.67;;;2.90;;
14686;SDS011;7431;49.440;11.084;2023-07-02T10:03:31;3.65;;;2.72;;
14686;SDS011;7431;49.440;11.084;2023-07-02T10:06:03;5.82;;;4.00;;
14686;SDS011;7431;49.440;11.084;2023-07-02T10:08:30;4.63;;;3.20;;
14686;SDS011;7431;49.440;11.084;2023-07-02T10:11:56;6.10;;;3.47;;
14686;SDS011;7431;49.440;11.084;2023-07-02T10:13:58;4.20;;;3.13;;
14686;SDS011;7431;49.440;11.084;2023-07-02T10:16:30;3.67;;;2.90;;
14686;SDS011;7431;49.440;11.084;2023-07-02T10:21:35;4.22;;;3.13;;
14686;SDS011;7431;49.440;11.084;2023-07-02T10:24:11;3.70;;;3.15;;
14686;SDS011;7431;49.440;11.084;2023-07-02T10:26:37;4.80;;;3.13;;
14686;SDS011;7431;49.440;11.084;2023-07-02T10:29:03;4.30;;;2.85;;
14686;SDS011;7431;49.440;11.084;2023-07-02T10:31:29;5.88;;;3.15;;
14686;SDS011;7431;49.440;11.084;2023-07-02T10:33:55;4.68;;;3.30;;
14686;SDS011;7431;49.440;11.084;2023-07-02T10:36:22;5.35;;;3.17;;
14686;SDS011;7431;49.440;11.084;2023-07-02T10:38:49;4.10;;;3.00;;
14686;SDS011;7431;49.440;11.084;2023-07-02T10:41:28;4.13;;;2.92;;
14686;SDS011;7431;49.440;11.084;2023-07-02T10:44:04;4.93;;;3.38;;
14686;SDS011;7431;49.440;11.084;2023-07-02T10:46:30;6.10;;;3.47;;
14686;SDS011;7431;49.440;11.084;2023-07-02T10:48:56;4.50;;;3.17;;
14686;SDS011;7431;49.440;11.084;2023-07-02T10:51:23;5.35;;;3.42;;
14686;SDS011;7431;49.440;11.084;2023-07-02T10:53:58;4.15;;;3.38;;
14686;SDS011;7431;49.440;11.084;2023-07-02T10:56:24;5.18;;;4.07;;
14686;SDS011;7431;49.440;11.084;2023-07-02T10:58:51;4.38;;;3.20;;
14686;SDS011;7431;49.440;11.084;2023-07-02T11:01:24;3.63;;;3.20;;
14686;SDS011;7431;49.440;11.084;2023-07-02T11:04:01;5.93;;;3.15;;
14686;SDS011;7431;49.440;11.084;2023-07-02T11:06:29;3.85;;;3.05;;
14686;SDS011;7431;49.440;11.084;2023-07-02T11:08:56;4.60;;;3.03;;
14686;SDS011;7431;49.440;11.084;2023-07-02T11:11:22;3.83;;;3.20;;
14686;SDS011;7431;49.440;11.084;2023-07-02T11:13:49;3.95;;;3.42;;
14686;SDS011;7431;49.440;11.084;2023-07-02T11:16:22;5.00;;;3.47;;
14686;SDS011;7431;49.440;11.084;2023-07-02T11:18:54;6.13;;;3.88;;
14686;SDS011;7431;49.440;11.084;2023-07-02T11:21:20;5.88;;;4.18;;
14686;SDS011;7431;49.440;11.084;2023-07-02T11:23:46;8.32;;;5.03;;
14686;SDS011;7431;49.440;11.084;2023-07-02T11:26:12;5.15;;;3.92;;
14686;SDS011;7431;49.440;11.084;2023-07-02T11:28:47;6.03;;;4.30;;
14686;SDS011;7431;49.440;11.084;2023-07-02T11:31:13;6.80;;;4.85;;
14686;SDS011;7431;49.440;11.084;2023-07-02T11:33:40;6.35;;;4.35;;
14686;SDS011;7431;49.440;11.084;2023-07-02T11:36:07;4.68;;;3.70;;
14686;SDS011;7431;49.440;11.084;2023-07-02T11:38:33;6.43;;;4.32;;
14686;SDS011;7431;49.440;11.084;2023-07-02T11:41:02;7.10;;;4.28;;
14686;SDS011;7431;49.440;11.084;2023-07-02T11:43:28;6.82;;;4.07;;
14686;SDS011;7431;49.440;11.084;2023-07-02T11:48:22;6.82;;;4.57;;
14686;SDS011;7431;49.440;11.084;2023-07-02T11:50:48;8.05;;;4.53;;
14686;SDS011;7431;49.440;11.084;2023-07-02T11:53:14;7.35;;;4.82;;
14686;SDS011;7431;49.440;11.084;2023-07-02T11:55:40;10.43;;;5.47;;
14686;SDS011;7431;49.440;11.084;2023-07-02T11:58:06;7.15;;;5.03;;
14686;SDS011;7431;49.440;11.084;2023-07-02T12:00:32;8.80;;;5.68;;
14686;SDS011;7431;49.440;11.084;2023-07-02T12:02:58;8.07;;;5.35;;
14686;SDS011;7431;49.440;11.084;2023-07-02T12:05:24;9.30;;;5.93;;
14686;SDS011;7431;49.440;11.084;2023-07-02T12:07:50;10.43;;;5.95;;
14686;SDS011;7431;49.440;11.084;2023-07-02T12:10:16;10.15;;;6.20;;
14686;SDS011;7431;49.440;11.084;2023-07-02T12:12:42;10.60;;;6.28;;
14686;SDS011;7431;49.440;11.084;2023-07-02T12:15:08;10.35;;;6.80;;
14686;SDS011;7431;49.440;11.084;2023-07-02T12:17:34;10.60;;;6.43;;
14686;SDS011;7431;49.440;11.084;2023-07-02T12:20:00;9.68;;;6.20;;
14686;SDS011;7431;49.440;11.084;2023-07-02T12:22:26;10.65;;;6.07;;
14686;SDS011;7431;49.440;11.084;2023-07-02T12:24:52;10.00;;;6.35;;
14686;SDS011;7431;49.440;11.084;2023-07-02T12:27:21;9.05;;;6.10;;
14686;SDS011;7431;49.440;11.084;2023-07-02T12:29:47;11.63;;;6.32;;
14686;SDS011;7431;49.440;11.084;2023-07-02T12:32:14;9.13;;;6.75;;
14686;SDS011;7431;49.440;11.084;2023-07-02T12:34:40;9.00;;;6.35;;
14686;SDS011;7431;49.440;11.084;2023-07-02T12:37:06;9.60;;;6.25;;
14686;SDS011;7431;49.440;11.084;2023-07-02T12:39:32;10.90;;;6.07;;
14686;SDS011;7431;49.440;11.084;2023-07-02T12:41:58;10.23;;;5.45;;
14686;SDS011;7431;49.440;11.084;2023-07-02T12:44:24;7.32;;;5.50;;
14686;SDS011;7431;49.440;11.084;2023-07-02T12:46:50;8.63;;;6.18;;
14686;SDS011;7431;49.440;11.084;2023-07-02T12:49:16;13.10;;;6.40;;
14686;SDS011;7431;49.440;11.084;2023-07-02T12:51:42;8.82;;;5.93;;
14686;SDS011;7431;49.440;11.084;2023-07-02T12:54:08;10.95;;;6.03;;
14686;SDS011;7431;49.440;11.084;2023-07-02T12:56:34;8.88;;;6.50;;
14686;SDS011;7431;49.440;11.084;2023-07-02T12:59:01;8.70;;;5.90;;
14686;SDS011;7431;49.440;11.084;2023-07-02T13:01:28;9.30;;;5.97;;
14686;SDS011;7431;49.440;11.084;2023-07-02T13:03:54;10.43;;;6.35;;
14686;SDS011;7431;49.440;11.084;2023-07-02T13:06:20;8.07;;;5.80;;
14686;SDS011;7431;49.440;11.084;2023-07-02T13:08:45;12.63;;;6.45;;
14686;SDS011;7431;49.440;11.084;2023-07-02T13:11:11;11.82;;;7.00;;
14686;SDS011;7431;49.440;11.084;2023-07-02T13:13:39;10.48;;;6.63;;
14686;SDS011;7431;49.440;11.084;2023-07-02T13:16:06;9.07;;;6.43;;
14686;SDS011;7431;49.440;11.084;2023-07-02T13:18:32;9.52;;;6.93;;
14686;SDS011;7431;49.440;11.084;2023-07-02T13:20:57;11.63;;;6.95;;
14686;SDS011;7431;49.440;11.084;2023-07-02T13:23:23;14.13;;;8.38;;
14686;SDS011;7431;49.440;11.084;2023-07-02T13:25:49;9.45;;;7.53;;
14686;SDS011;7431;49.440;11.084;2023-07-02T13:28:15;12.60;;;6.43;;
14686;SDS011;7431;49.440;11.084;2023-07-02T13:30:41;9.77;;;6.28;;
14686;SDS011;7431;49.440;11.084;2023-07-02T13:33:07;10.07;;;6.97;;
14686;SDS011;7431;49.440;11.084;2023-07-02T13:35:33;10.55;;;6.40;;
14686;SDS011;7431;49.440;11.084;2023-07-02T13:38:02;10.88;;;7.25;;
14686;SDS011;7431;49.440;11.084;2023-07-02T13:40:29;8.38;;;6.47;;
14686;SDS011;7431;49.440;11.084;2023-07-02T13:42:55;11.15;;;6.70;;
14686;SDS011;7431;49.440;11.084;2023-07-02T13:45:21;12.10;;;6.90;;
14686;SDS011;7431;49.440;11.084;2023-07-02T13:47:47;10.27;;;7.32;;
14686;SDS011;7431;49.440;11.084;2023-07-02T13:50:13;10.18;;;6.78;;
14686;SDS011;7431;49.440;11.084;2023-07-02T13:52:39;11.93;;;7.55;;
14686;SDS011;7431;49.440;11.084;2023-07-02T13:55:05;11.45;;;7.43;;
14686;SDS011;7431;49.440;11.084;2023-07-02T13:57:31;10.98;;;7.53;;
14686;SDS011;7431;49.440;11.084;2023-07-02T13:59:57;10.73;;;7.28;;
14686;SDS011;7431;49.440;11.084;2023-07-02T14:02:23;11.15;;;7.18;;
14686;SDS011;7431;49.440;11.084;2023-07-02T14:04:49;14.07;;;7.80;;
14686;SDS011;7431;49.440;11.084;2023-07-02T14:07:15;11.00;;;8.27;;
14686;SDS011;7431;49.440;11.084;2023-07-02T14:09:41;12.15;;;7.93;;
14686;SDS011;7431;49.440;11.084;2023-07-02T14:12:07;10.73;;;7.80;;
14686;SDS011;7431;49.440;11.084;2023-07-02T14:14:33;13.07;;;8.80;;
14686;SDS011;7431;49.440;11.084;2023-07-02T14:16:59;10.68;;;7.32;;
14686;SDS011;7431;49.440;11.084;2023-07-02T14:19:25;13.70;;;8.00;;
14686;SDS011;7431;49.440;11.084;2023-07-02T14:21:51;11.48;;;7.53;;
14686;SDS011;7431;49.440;11.084;2023-07-02T14:24:17;12.80;;;8.13;;
14686;SDS011;7431;49.440;11.084;2023-07-02T14:26:43;12.75;;;8.30;;
14686;SDS011;7431;49.440;11.084;2023-07-02T14:29:09;13.70;;;8.57;;
14686;SDS011;7431;49.440;11.084;2023-07-02T14:31:35;13.77;;;8.93;;
14686;SDS011;7431;49.440;11.084;2023-07-02T14:34:01;12.70;;;8.65;;
14686;SDS011;7431;49.440;11.084;2023-07-02T14:36:27;12.60;;;8.85;;
14686;SDS011;7431;49.440;11.084;2023-07-02T14:38:53;12.23;;;8.10;;
14686;SDS011;7431;49.440;11.084;2023-07-02T14:41:19;11.85;;;7.60;;
14686;SDS011;7431;49.440;11.084;2023-07-02T14:43:45;14.10;;;9.20;;
14686;SDS011;7431;49.440;11.084;2023-07-02T14:46:11;11.18;;;7.75;;
14686;SDS011;7431;49.440;11.084;2023-07-02T14:48:37;14.23;;;8.68;;
14686;SDS011;7431;49.440;11.084;2023-07-02T14:51:04;14.20;;;7.70;;